sensor_id;sensor_type;location;lat;lon;timestamp;P1;durP1;ratioP1;P2;durP2;ratioP2
25231;SDS011;13176;51.140;6.290;2023-06-22T00:00:43;113.45;;;107.15;;
25231;SDS011;13176;51.140;6.290;2023-06-22T00:03:11;116.43;;;109.68;;
25231;SDS011;13176;51.140;6.290;2023-06-22T00:05:37;105.47;;;99.05;;
25231;SDS011;13176;51.140;6.290;2023-06-22T00:08:04;86.03;;;81.15;;
25231;SDS011;13176;51.140;6.290;2023-06-22T00:10:31;115.28;;;108.75;;
25231;SDS011;13176;51.140;6.290;2023-06-22T00:12:59;118.63;;;111.85;;
25231;SDS011;13176;51.140;6.290;2023-06-22T00:15:29;119.85;;;113.07;;
25231;SDS011;13176;51.140;6.290;2023-06-22T00:17:56;131.98;;;124.57;;
25231;SDS011;13176;51.140;6.290;2023-06-22T00:20:32;149.45;;;141.18;;
25231;SDS011;13176;51.140;6.290;2023-06-22T00:23:03;120.65;;;113.85;;
25231;SDS011;13176;51.140;6.290;2023-06-22T00:25:34;114.30;;;107.95;;
25231;SDS011;13176;51.140;6.290;2023-06-22T00:28:02;176.95;;;166.70;;
25231;SDS011;13176;51.140;6.290;2023-06-22T00:30:30;208.63;;;197.15;;
25231;SDS011;13176;51.140;6.290;2023-06-22T00:33:09;186.30;;;175.73;;
25231;SDS011;13176;51.140;6.290;2023-06-22T00:35:36;411.65;;;385.80;;
25231;SDS011;13176;51.140;6.290;2023-06-22T00:38:02;503.17;;;470.80;;
25231;SDS011;13176;51.140;6.290;2023-06-22T00:40:34;531.67;;;496.33;;
25231;SDS011;13176;51.140;6.290;2023-06-22T00:43:01;667.30;;;620.63;;
25231;SDS011;13176;51.140;6.290;2023-06-22T00:45:35;714.05;;;662.40;;
25231;SDS011;13176;51.140;6.290;2023-06-22T00:48:02;651.35;;;605.35;;
25231;SDS011;13176;51.140;6.290;2023-06-22T00:50:30;761.17;;;704.40;;
25231;SDS011;13176;51.140;6.290;2023-06-22T00:53:04;735.20;;;681.80;;
25231;SDS011;13176;51.140;6.290;2023-06-22T00:55:36;751.38;;;696.83;;
25231;SDS011;13176;51.140;6.290;2023-06-22T00:58:13;823.90;;;762.08;;
25231;SDS011;13176;51.140;6.290;2023-06-22T01:00:40;828.90;;;766.20;;
25231;SDS011;13176;51.140;6.290;2023-06-22T01:03:09;860.42;;;793.28;;
25231;SDS011;13176;51.140;6.290;2023-06-22T01:05:39;916.92;;;842.38;;
25231;SDS011;13176;51.140;6.290;2023-06-22T01:13:35;894.22;;;824.47;;
25231;SDS011;13176;51.140;6.290;2023-06-22T01:16:05;890.25;;;819.60;;
25231;SDS011;13176;51.140;6.290;2023-06-22T01:18:40;948.00;;;869.95;;
25231;SDS011;13176;51.140;6.290;2023-06-22T01:21:10;985.38;;;899.55;;
25231;SDS011;13176;51.140;6.290;2023-06-22T01:23:50;972.53;;;890.78;;
25231;SDS011;13176;51.140;6.290;2023-06-22T01:26:25;954.58;;;876.20;;
25231;SDS011;13176;51.140;6.290;2023-06-22T01:29:09;933.55;;;856.63;;
25231;SDS011;13176;51.140;6.290;2023-06-22T01:31:40;985.22;;;900.05;;
25231;SDS011;13176;51.140;6.290;2023-06-22T01:34:09;1006.67;;;920.55;;
25231;SDS011;13176;51.140;6.290;2023-06-22T01:36:39;977.38;;;894.80;;
25231;SDS011;13176;51.140;6.290;2023-06-22T01:39:06;981.95;;;899.03;;
25231;SDS011;13176;51.140;6.290;2023-06-22T01:41:38;950.35;;;871.80;;
25231;SDS011;13176;51.140;6.290;2023-06-22T01:44:13;1002.28;;;915.72;;
25231;SDS011;13176;51.140;6.290;2023-06-22T01:46:41;973.10;;;891.83;;
25231;SDS011;13176;51.140;6.290;2023-06-22T01:49:11;912.03;;;838.58;;
25231;SDS011;13176;51.140;6.290;2023-06-22T01:51:38;991.75;;;906.28;;
25231;SDS011;13176;51.140;6.290;2023-06-22T01:54:09;935.88;;;858.92;;
25231;SDS011;13176;51.140;6.290;2023-06-22T01:56:37;926.85;;;850.75;;
25231;SDS011;13176;51.140;6.290;2023-06-22T01:59:14;921.85;;;845.88;;
25231;SDS011;13176;51.140;6.290;2023-06-22T02:02:02;893.03;;;822.83;;
25231;SDS011;13176;51.140;6.290;2023-06-22T02:04:54;930.95;;;855.15;;
25231;SDS011;13176;51.140;6.290;2023-06-22T02:07:28;920.28;;;845.28;;
25231;SDS011;13176;51.140;6.290;2023-06-22T02:10:00;941.75;;;864.60;;
25231;SDS011;13176;51.140;6.290;2023-06-22T02:12:28;959.65;;;878.92;;
25231;SDS011;13176;51.140;6.290;2023-06-22T02:14:58;955.90;;;874.83;;
25231;SDS011;13176;51.140;6.290;2023-06-22T02:17:31;947.92;;;870.15;;
25231;SDS011;13176;51.140;6.290;2023-06-22T02:20:03;981.97;;;896.28;;
25231;SDS011;13176;51.140;6.290;2023-06-22T02:22:46;976.88;;;892.95;;
25231;SDS011;13176;51.140;6.290;2023-06-22T02:25:13;1014.00;;;927.42;;
25231;SDS011;13176;51.140;6.290;2023-06-22T02:27:40;1045.38;;;951.42;;
25231;SDS011;13176;51.140;6.290;2023-06-22T02:30:08;1051.57;;;956.40;;
25231;SDS011;13176;51.140;6.290;2023-06-22T02:32:38;1047.53;;;951.20;;
25231;SDS011;13176;51.140;6.290;2023-06-22T02:35:09;1061.47;;;963.38;;
25231;SDS011;13176;51.140;6.290;2023-06-22T02:37:36;1042.82;;;949.50;;
25231;SDS011;13176;51.140;6.290;2023-06-22T02:40:08;1044.40;;;948.67;;
25231;SDS011;13176;51.140;6.290;2023-06-22T02:42:41;1037.50;;;944.10;;
25231;SDS011;13176;51.140;6.290;2023-06-22T02:45:08;1033.47;;;943.08;;
25231;SDS011;13176;51.140;6.290;2023-06-22T02:47:36;1033.18;;;943.95;;
25231;SDS011;13176;51.140;6.290;2023-06-22T02:50:05;1060.35;;;964.85;;
25231;SDS011;13176;51.140;6.290;2023-06-22T02:52:44;1105.20;;;997.70;;
25231;SDS011;13176;51.140;6.290;2023-06-22T02:55:16;1018.22;;;929.45;;
25231;SDS011;13176;51.140;6.290;2023-06-22T02:57:43;1040.20;;;946.63;;
25231;SDS011;13176;51.140;6.290;2023-06-22T03:00:13;1019.00;;;928.03;;
25231;SDS011;13176;51.140;6.290;2023-06-22T03:02:44;996.40;;;910.55;;
25231;SDS011;13176;51.140;6.290;2023-06-22T03:05:12;995.17;;;908.17;;
25231;SDS011;13176;51.140;6.290;2023-06-22T03:07:42;1000.85;;;915.95;;
25231;SDS011;13176;51.140;6.290;2023-06-22T03:10:10;982.42;;;899.05;;
25231;SDS011;13176;51.140;6.290;2023-06-22T03:12:38;1007.47;;;919.85;;
25231;SDS011;13176;51.140;6.290;2023-06-22T03:15:05;1020.60;;;929.10;;
25231;SDS011;13176;51.140;6.290;2023-06-22T03:17:33;1007.90;;;918.78;;
25231;SDS011;13176;51.140;6.290;2023-06-22T03:20:03;991.97;;;906.67;;
25231;SDS011;13176;51.140;6.290;2023-06-22T03:22:39;1008.20;;;919.13;;
25231;SDS011;13176;51.140;6.290;2023-06-22T03:25:07;1039.80;;;944.92;;
25231;SDS011;13176;51.140;6.290;2023-06-22T03:27:40;1013.50;;;922.30;;
25231;SDS011;13176;51.140;6.290;2023-06-22T03:30:17;1056.07;;;958.90;;
25231;SDS011;13176;51.140;6.290;2023-06-22T03:32:44;1028.32;;;935.65;;
25231;SDS011;13176;51.140;6.290;2023-06-22T03:35:13;1033.90;;;941.67;;
25231;SDS011;13176;51.140;6.290;2023-06-22T03:37:40;1041.10;;;947.38;;
25231;SDS011;13176;51.140;6.290;2023-06-22T03:40:07;1014.97;;;924.97;;
25231;SDS011;13176;51.140;6.290;2023-06-22T03:42:34;1026.45;;;935.17;;
25231;SDS011;13176;51.140;6.290;2023-06-22T03:45:02;1047.78;;;953.78;;
25231;SDS011;13176;51.140;6.290;2023-06-22T03:47:29;1035.43;;;944.00;;
25231;SDS011;13176;51.140;6.290;2023-06-22T03:49:56;1037.20;;;946.50;;
25231;SDS011;13176;51.140;6.290;2023-06-22T03:52:23;1009.83;;;922.10;;
25231;SDS011;13176;51.140;6.290;2023-06-22T03:54:55;983.17;;;899.25;;
25231;SDS011;13176;51.140;6.290;2023-06-22T03:57:21;1022.95;;;934.78;;
25231;SDS011;13176;51.140;6.290;2023-06-22T03:59:48;1007.35;;;919.60;;
25231;SDS011;13176;51.140;6.290;2023-06-22T04:02:16;1023.50;;;934.55;;
25231;SDS011;13176;51.140;6.290;2023-06-22T04:04:46;1035.07;;;944.47;;
25231;SDS011;13176;51.140;6.290;2023-06-22T04:07:12;1028.35;;;937.80;;
25231;SDS011;13176;51.140;6.290;2023-06-22T04:09:40;1015.42;;;927.28;;
25231;SDS011;13176;51.140;6.290;2023-06-22T04:12:07;1054.40;;;958.13;;
25231;SDS011;13176;51.140;6.290;2023-06-22T04:14:38;1055.90;;;959.92;;
25231;SDS011;13176;51.140;6.290;2023-06-22T04:17:04;1062.32;;;967.20;;
25231;SDS011;13176;51.140;6.290;2023-06-22T04:19:31;1069.43;;;967.65;;
25231;SDS011;13176;51.140;6.290;2023-06-22T04:22:05;1038.00;;;940.88;;
25231;SDS011;13176;51.140;6.290;2023-06-22T04:24:36;1302.25;;;976.72;;
25231;SDS011;13176;51.140;6.290;2023-06-22T04:27:05;1037.43;;;944.38;;
25231;SDS011;13176;51.140;6.290;2023-06-22T04:29:37;1061.82;;;966.13;;
25231;SDS011;13176;51.140;6.290;2023-06-22T04:32:28;1310.07;;;984.53;;
25231;SDS011;13176;51.140;6.290;2023-06-22T04:34:57;1284.63;;;962.10;;
25231;SDS011;13176;51.140;6.290;2023-06-22T04:37:26;1050.10;;;955.40;;
25231;SDS011;13176;51.140;6.290;2023-06-22T04:39:52;1078.20;;;978.67;;
25231;SDS011;13176;51.140;6.290;2023-06-22T04:42:19;1057.47;;;962.83;;
25231;SDS011;13176;51.140;6.290;2023-06-22T04:44:47;1096.25;;;991.28;;
25231;SDS011;13176;51.140;6.290;2023-06-22T04:47:14;1093.07;;;986.70;;
25231;SDS011;13176;51.140;6.290;2023-06-22T04:49:41;1064.10;;;968.20;;
25231;SDS011;13176;51.140;6.290;2023-06-22T04:52:10;1069.20;;;968.47;;
25231;SDS011;13176;51.140;6.290;2023-06-22T04:54:41;1067.35;;;966.78;;
25231;SDS011;13176;51.140;6.290;2023-06-22T04:57:13;1070.90;;;970.88;;
25231;SDS011;13176;51.140;6.290;2023-06-22T04:59:41;1078.65;;;977.80;;
25231;SDS011;13176;51.140;6.290;2023-06-22T05:02:08;1096.32;;;990.10;;
25231;SDS011;13176;51.140;6.290;2023-06-22T05:04:35;1085.97;;;980.17;;
25231;SDS011;13176;51.140;6.290;2023-06-22T05:07:07;1098.68;;;992.92;;
25231;SDS011;13176;51.140;6.290;2023-06-22T05:09:36;1085.72;;;982.20;;
25231;SDS011;13176;51.140;6.290;2023-06-22T05:12:02;1107.25;;;995.17;;
25231;SDS011;13176;51.140;6.290;2023-06-22T05:14:32;1069.38;;;970.50;;
25231;SDS011;13176;51.140;6.290;2023-06-22T05:16:59;1068.05;;;973.15;;
25231;SDS011;13176;51.140;6.290;2023-06-22T05:19:30;1055.75;;;958.03;;
25231;SDS011;13176;51.140;6.290;2023-06-22T05:22:01;1042.15;;;949.17;;
25231;SDS011;13176;51.140;6.290;2023-06-22T05:24:28;1047.05;;;954.35;;
25231;SDS011;13176;51.140;6.290;2023-06-22T05:26:54;1042.10;;;946.25;;
25231;SDS011;13176;51.140;6.290;2023-06-22T05:29:29;1084.03;;;979.85;;
25231;SDS011;13176;51.140;6.290;2023-06-22T05:31:56;1057.97;;;958.80;;
25231;SDS011;13176;51.140;6.290;2023-06-22T05:34:22;1042.03;;;949.00;;
25231;SDS011;13176;51.140;6.290;2023-06-22T05:36:51;1064.43;;;968.13;;
25231;SDS011;13176;51.140;6.290;2023-06-22T05:39:17;1082.32;;;980.25;;
25231;SDS011;13176;51.140;6.290;2023-06-22T05:41:51;1091.43;;;987.33;;
25231;SDS011;13176;51.140;6.290;2023-06-22T05:44:19;1069.18;;;970.28;;
25231;SDS011;13176;51.140;6.290;2023-06-22T05:46:46;1067.40;;;967.20;;
25231;SDS011;13176;51.140;6.290;2023-06-22T05:49:14;1073.15;;;972.75;;
25231;SDS011;13176;51.140;6.290;2023-06-22T05:51:41;1055.25;;;957.00;;
25231;SDS011;13176;51.140;6.290;2023-06-22T05:54:09;1076.55;;;976.08;;
25231;SDS011;13176;51.140;6.290;2023-06-22T05:56:36;1061.95;;;962.30;;
25231;SDS011;13176;51.140;6.290;2023-06-22T05:59:14;1074.85;;;975.63;;
25231;SDS011;13176;51.140;6.290;2023-06-22T06:01:40;1061.70;;;965.45;;
25231;SDS011;13176;51.140;6.290;2023-06-22T06:04:07;1076.28;;;976.15;;
25231;SDS011;13176;51.140;6.290;2023-06-22T06:06:47;1089.68;;;987.92;;
25231;SDS011;13176;51.140;6.290;2023-06-22T06:09:23;1085.13;;;984.15;;
25231;SDS011;13176;51.140;6.290;2023-06-22T06:11:50;1064.32;;;967.38;;
25231;SDS011;13176;51.140;6.290;2023-06-22T06:14:16;1052.35;;;957.25;;
25231;SDS011;13176;51.140;6.290;2023-06-22T06:16:43;1274.63;;;957.15;;
25231;SDS011;13176;51.140;6.290;2023-06-22T06:19:10;1083.63;;;982.47;;
25231;SDS011;13176;51.140;6.290;2023-06-22T06:21:39;1526.95;;;979.13;;
25231;SDS011;13176;51.140;6.290;2023-06-22T06:24:06;1285.40;;;965.67;;
25231;SDS011;13176;51.140;6.290;2023-06-22T06:26:32;1284.70;;;964.03;;
25231;SDS011;13176;51.140;6.290;2023-06-22T06:29:02;1999.90;;;999.90;;
25231;SDS011;13176;51.140;6.290;2023-06-22T06:31:31;1999.90;;;999.90;;
25231;SDS011;13176;51.140;6.290;2023-06-22T06:33:58;1999.90;;;999.90;;
25231;SDS011;13176;51.140;6.290;2023-06-22T06:36:27;1270.00;;;950.78;;
25231;SDS011;13176;51.140;6.290;2023-06-22T06:38:53;1265.70;;;948.33;;
25231;SDS011;13176;51.140;6.290;2023-06-22T06:41:23;1271.75;;;955.05;;
25231;SDS011;13176;51.140;6.290;2023-06-22T06:43:49;1004.67;;;917.70;;
25231;SDS011;13176;51.140;6.290;2023-06-22T06:46:18;1021.95;;;934.83;;
25231;SDS011;13176;51.140;6.290;2023-06-22T06:48:48;970.28;;;890.58;;
25231;SDS011;13176;51.140;6.290;2023-06-22T06:51:17;973.78;;;893.30;;
25231;SDS011;13176;51.140;6.290;2023-06-22T06:53:44;985.65;;;902.22;;
25231;SDS011;13176;51.140;6.290;2023-06-22T06:56:10;995.95;;;911.83;;
25231;SDS011;13176;51.140;6.290;2023-06-22T07:03:38;944.53;;;868.88;;
25231;SDS011;13176;51.140;6.290;2023-06-22T07:06:05;998.38;;;913.33;;
25231;SDS011;13176;51.140;6.290;2023-06-22T07:08:32;979.22;;;898.40;;
25231;SDS011;13176;51.140;6.290;2023-06-22T07:11:03;1262.75;;;947.45;;
25231;SDS011;13176;51.140;6.290;2023-06-22T07:13:31;1017.75;;;932.33;;
25231;SDS011;13176;51.140;6.290;2023-06-22T07:15:57;1014.42;;;930.08;;
25231;SDS011;13176;51.140;6.290;2023-06-22T07:18:25;1001.83;;;915.13;;
25231;SDS011;13176;51.140;6.290;2023-06-22T07:20:52;975.47;;;893.15;;
25231;SDS011;13176;51.140;6.290;2023-06-22T07:23:19;1010.13;;;923.22;;
25231;SDS011;13176;51.140;6.290;2023-06-22T07:26:04;1012.63;;;924.83;;
25231;SDS011;13176;51.140;6.290;2023-06-22T07:28:36;1005.00;;;921.75;;
25231;SDS011;13176;51.140;6.290;2023-06-22T07:31:10;1089.90;;;984.58;;
25231;SDS011;13176;51.140;6.290;2023-06-22T07:33:37;1010.72;;;924.45;;
25231;SDS011;13176;51.140;6.290;2023-06-22T07:36:05;1001.97;;;917.13;;
25231;SDS011;13176;51.140;6.290;2023-06-22T07:38:34;991.40;;;905.80;;
25231;SDS011;13176;51.140;6.290;2023-06-22T07:41:03;986.88;;;902.60;;
25231;SDS011;13176;51.140;6.290;2023-06-22T07:43:31;1008.50;;;921.42;;
25231;SDS011;13176;51.140;6.290;2023-06-22T07:46:00;936.70;;;860.72;;
25231;SDS011;13176;51.140;6.290;2023-06-22T07:48:36;1002.05;;;912.47;;
25231;SDS011;13176;51.140;6.290;2023-06-22T07:51:06;1026.82;;;928.03;;
25231;SDS011;13176;51.140;6.290;2023-06-22T07:53:33;1028.07;;;930.15;;
25231;SDS011;13176;51.140;6.290;2023-06-22T07:56:00;1063.35;;;959.75;;
25231;SDS011;13176;51.140;6.290;2023-06-22T07:58:26;1118.38;;;995.70;;
25231;SDS011;13176;51.140;6.290;2023-06-22T08:00:55;1153.07;;;999.90;;
25231;SDS011;13176;51.140;6.290;2023-06-22T08:03:22;954.30;;;871.28;;
25231;SDS011;13176;51.140;6.290;2023-06-22T08:05:49;1184.03;;;999.90;;
25231;SDS011;13176;51.140;6.290;2023-06-22T08:08:17;1264.40;;;999.90;;
25231;SDS011;13176;51.140;6.290;2023-06-22T08:10:47;1253.28;;;999.90;;
25231;SDS011;13176;51.140;6.290;2023-06-22T08:13:14;1193.32;;;999.70;;
25231;SDS011;13176;51.140;6.290;2023-06-22T08:15:44;1307.05;;;999.90;;
25231;SDS011;13176;51.140;6.290;2023-06-22T08:18:12;1333.82;;;999.90;;
25231;SDS011;13176;51.140;6.290;2023-06-22T08:20:39;1252.88;;;999.90;;
25231;SDS011;13176;51.140;6.290;2023-06-22T08:23:06;1221.43;;;999.90;;
25231;SDS011;13176;51.140;6.290;2023-06-22T08:25:33;1295.78;;;999.90;;
25231;SDS011;13176;51.140;6.290;2023-06-22T08:28:01;1308.47;;;999.90;;
25231;SDS011;13176;51.140;6.290;2023-06-22T08:30:30;1148.25;;;996.65;;
25231;SDS011;13176;51.140;6.290;2023-06-22T08:32:57;1324.63;;;999.90;;
25231;SDS011;13176;51.140;6.290;2023-06-22T08:35:23;1166.53;;;999.20;;
25231;SDS011;13176;51.140;6.290;2023-06-22T08:37:56;1175.57;;;997.28;;
25231;SDS011;13176;51.140;6.290;2023-06-22T08:40:24;1201.05;;;999.90;;
25231;SDS011;13176;51.140;6.290;2023-06-22T08:42:50;845.42;;;778.25;;
25231;SDS011;13176;51.140;6.290;2023-06-22T08:45:17;1249.32;;;997.25;;
25231;SDS011;13176;51.140;6.290;2023-06-22T08:47:44;1269.15;;;999.90;;
25231;SDS011;13176;51.140;6.290;2023-06-22T08:50:11;1071.00;;;957.67;;
25231;SDS011;13176;51.140;6.290;2023-06-22T08:52:40;1035.78;;;930.65;;
25231;SDS011;13176;51.140;6.290;2023-06-22T08:55:15;1325.97;;;999.90;;
25231;SDS011;13176;51.140;6.290;2023-06-22T08:57:41;922.83;;;844.65;;
25231;SDS011;13176;51.140;6.290;2023-06-22T09:00:09;1011.80;;;917.10;;
25231;SDS011;13176;51.140;6.290;2023-06-22T09:02:46;947.88;;;865.03;;
25231;SDS011;13176;51.140;6.290;2023-06-22T09:05:14;987.58;;;895.78;;
25231;SDS011;13176;51.140;6.290;2023-06-22T09:07:41;1098.40;;;975.67;;
25231;SDS011;13176;51.140;6.290;2023-06-22T09:10:08;1120.93;;;992.97;;
25231;SDS011;13176;51.140;6.290;2023-06-22T09:12:41;1024.25;;;924.53;;
25231;SDS011;13176;51.140;6.290;2023-06-22T09:15:08;1199.30;;;999.90;;
25231;SDS011;13176;51.140;6.290;2023-06-22T09:17:41;1014.83;;;922.60;;
25231;SDS011;13176;51.140;6.290;2023-06-22T09:20:08;1052.78;;;946.13;;
25231;SDS011;13176;51.140;6.290;2023-06-22T09:22:37;1283.88;;;999.90;;
25231;SDS011;13176;51.140;6.290;2023-06-22T09:25:04;1240.20;;;999.90;;
25231;SDS011;13176;51.140;6.290;2023-06-22T09:27:33;1135.07;;;998.42;;
25231;SDS011;13176;51.140;6.290;2023-06-22T09:30:03;976.75;;;888.40;;
25231;SDS011;13176;51.140;6.290;2023-06-22T09:32:30;954.05;;;869.75;;
25231;SDS011;13176;51.140;6.290;2023-06-22T09:34:56;1135.93;;;996.22;;
25231;SDS011;13176;51.140;6.290;2023-06-22T09:37:23;1071.88;;;963.38;;
25231;SDS011;13176;51.140;6.290;2023-06-22T09:39:49;972.63;;;879.13;;
25231;SDS011;13176;51.140;6.290;2023-06-22T09:42:16;865.22;;;792.72;;
25231;SDS011;13176;51.140;6.290;2023-06-22T09:44:43;927.10;;;844.25;;
25231;SDS011;13176;51.140;6.290;2023-06-22T09:47:11;694.50;;;641.53;;
25231;SDS011;13176;51.140;6.290;2023-06-22T09:49:38;1011.40;;;912.88;;
25231;SDS011;13176;51.140;6.290;2023-06-22T09:52:14;712.95;;;657.53;;
25231;SDS011;13176;51.140;6.290;2023-06-22T09:54:42;620.08;;;573.05;;
25231;SDS011;13176;51.140;6.290;2023-06-22T09:57:11;1096.05;;;980.28;;
25231;SDS011;13176;51.140;6.290;2023-06-22T09:59:39;1036.53;;;938.22;;
25231;SDS011;13176;51.140;6.290;2023-06-22T10:02:06;1129.18;;;997.55;;
25231;SDS011;13176;51.140;6.290;2023-06-22T10:04:34;1105.72;;;985.75;;
25231;SDS011;13176;51.140;6.290;2023-06-22T10:07:01;1026.75;;;927.22;;
25231;SDS011;13176;51.140;6.290;2023-06-22T10:09:29;1243.78;;;999.90;;
25231;SDS011;13176;51.140;6.290;2023-06-22T10:11:55;1070.13;;;964.80;;
25231;SDS011;13176;51.140;6.290;2023-06-22T10:14:22;1110.28;;;982.33;;
25231;SDS011;13176;51.140;6.290;2023-06-22T10:16:48;1279.10;;;999.90;;
25231;SDS011;13176;51.140;6.290;2023-06-22T10:19:15;1261.13;;;999.90;;
25231;SDS011;13176;51.140;6.290;2023-06-22T10:21:41;1264.22;;;999.90;;
25231;SDS011;13176;51.140;6.290;2023-06-22T10:24:08;1260.85;;;999.90;;
25231;SDS011;13176;51.140;6.290;2023-06-22T10:26:35;1191.28;;;999.90;;
25231;SDS011;13176;51.140;6.290;2023-06-22T10:29:02;1999.90;;;999.90;;
25231;SDS011;13176;51.140;6.290;2023-06-22T10:31:32;1076.68;;;960.28;;
25231;SDS011;13176;51.140;6.290;2023-06-22T10:33:59;1999.90;;;999.90;;
25231;SDS011;13176;51.140;6.290;2023-06-22T10:36:27;1999.90;;;999.90;;
25231;SDS011;13176;51.140;6.290;2023-06-22T10:38:54;1999.90;;;999.90;;
25231;SDS011;13176;51.140;6.290;2023-06-22T10:41:26;1999.90;;;999.90;;
25231;SDS011;13176;51.140;6.290;2023-06-22T10:43:56;1999.90;;;999.90;;
25231;SDS011;13176;51.140;6.290;2023-06-22T10:46:26;1999.90;;;999.90;;
25231;SDS011;13176;51.140;6.290;2023-06-22T10:48:53;1999.90;;;999.90;;
25231;SDS011;13176;51.140;6.290;2023-06-22T10:51:24;1999.90;;;999.90;;
25231;SDS011;13176;51.140;6.290;2023-06-22T10:53:52;1999.90;;;999.90;;
25231;SDS011;13176;51.140;6.290;2023-06-22T10:56:18;1999.90;;;999.90;;
25231;SDS011;13176;51.140;6.290;2023-06-22T10:58:45;1633.85;;;870.92;;
25231;SDS011;13176;51.140;6.290;2023-06-22T11:01:12;649.80;;;590.80;;
25231;SDS011;13176;51.140;6.290;2023-06-22T11:03:59;662.40;;;606.15;;
25231;SDS011;13176;51.140;6.290;2023-06-22T11:06:25;744.15;;;677.55;;
25231;SDS011;13176;51.140;6.290;2023-06-22T11:08:52;764.72;;;697.67;;
25231;SDS011;13176;51.140;6.290;2023-06-22T11:11:37;766.03;;;701.17;;
25231;SDS011;13176;51.140;6.290;2023-06-22T11:14:04;798.47;;;725.55;;
25231;SDS011;13176;51.140;6.290;2023-06-22T11:16:30;833.97;;;757.85;;
25231;SDS011;13176;51.140;6.290;2023-06-22T11:18:57;845.08;;;770.30;;
25231;SDS011;13176;51.140;6.290;2023-06-22T11:21:23;790.97;;;722.03;;
25231;SDS011;13176;51.140;6.290;2023-06-22T11:23:50;762.45;;;699.83;;
25231;SDS011;13176;51.140;6.290;2023-06-22T11:26:16;783.67;;;715.88;;
25231;SDS011;13176;51.140;6.290;2023-06-22T11:28:43;787.92;;;722.25;;
25231;SDS011;13176;51.140;6.290;2023-06-22T11:31:09;817.78;;;745.60;;
25231;SDS011;13176;51.140;6.290;2023-06-22T11:33:51;833.67;;;759.85;;
25231;SDS011;13176;51.140;6.290;2023-06-22T11:36:17;826.75;;;755.83;;
25231;SDS011;13176;51.140;6.290;2023-06-22T11:38:44;823.65;;;750.45;;
25231;SDS011;13176;51.140;6.290;2023-06-22T11:41:11;873.85;;;796.70;;
25231;SDS011;13176;51.140;6.290;2023-06-22T11:43:37;817.97;;;746.78;;
25231;SDS011;13176;51.140;6.290;2023-06-22T11:46:04;815.70;;;743.80;;
25231;SDS011;13176;51.140;6.290;2023-06-22T11:48:30;773.63;;;708.95;;
25231;SDS011;13176;51.140;6.290;2023-06-22T11:50:57;745.55;;;686.38;;
25231;SDS011;13176;51.140;6.290;2023-06-22T11:53:26;814.80;;;747.03;;
25231;SDS011;13176;51.140;6.290;2023-06-22T11:55:53;770.33;;;706.53;;
25231;SDS011;13176;51.140;6.290;2023-06-22T11:58:21;782.58;;;720.03;;
25231;SDS011;13176;51.140;6.290;2023-06-22T12:00:48;851.45;;;778.63;;
25231;SDS011;13176;51.140;6.290;2023-06-22T12:03:17;808.65;;;738.00;;
25231;SDS011;13176;51.140;6.290;2023-06-22T12:05:45;817.08;;;745.70;;
25231;SDS011;13176;51.140;6.290;2023-06-22T12:08:12;795.63;;;723.05;;
25231;SDS011;13176;51.140;6.290;2023-06-22T12:10:41;766.45;;;698.63;;
25231;SDS011;13176;51.140;6.290;2023-06-22T12:13:08;828.92;;;757.13;;
25231;SDS011;13176;51.140;6.290;2023-06-22T12:15:34;830.75;;;757.00;;
25231;SDS011;13176;51.140;6.290;2023-06-22T12:18:01;838.40;;;760.08;;
25231;SDS011;13176;51.140;6.290;2023-06-22T12:20:31;864.40;;;785.85;;
25231;SDS011;13176;51.140;6.290;2023-06-22T12:22:58;832.97;;;755.78;;
25231;SDS011;13176;51.140;6.290;2023-06-22T12:25:27;714.03;;;647.15;;
25231;SDS011;13176;51.140;6.290;2023-06-22T12:27:54;744.80;;;678.25;;
25231;SDS011;13176;51.140;6.290;2023-06-22T12:30:21;809.42;;;736.45;;
25231;SDS011;13176;51.140;6.290;2023-06-22T12:32:50;782.95;;;712.92;;
25231;SDS011;13176;51.140;6.290;2023-06-22T12:37:48;665.35;;;610.78;;
25231;SDS011;13176;51.140;6.290;2023-06-22T12:40:17;683.85;;;625.85;;
25231;SDS011;13176;51.140;6.290;2023-06-22T12:42:48;798.88;;;726.05;;
25231;SDS011;13176;51.140;6.290;2023-06-22T12:45:15;759.63;;;692.72;;
25231;SDS011;13176;51.140;6.290;2023-06-22T12:47:42;657.90;;;601.95;;
25231;SDS011;13176;51.140;6.290;2023-06-22T12:50:09;676.58;;;619.20;;
25231;SDS011;13176;51.140;6.290;2023-06-22T12:52:36;689.90;;;630.90;;
25231;SDS011;13176;51.140;6.290;2023-06-22T12:55:05;716.78;;;655.45;;
25231;SDS011;13176;51.140;6.290;2023-06-22T12:57:32;728.72;;;664.95;;
25231;SDS011;13176;51.140;6.290;2023-06-22T12:59:59;769.63;;;702.13;;
25231;SDS011;13176;51.140;6.290;2023-06-22T13:02:26;786.28;;;715.38;;
25231;SDS011;13176;51.140;6.290;2023-06-22T13:04:55;837.60;;;757.08;;
25231;SDS011;13176;51.140;6.290;2023-06-22T13:07:25;827.05;;;750.92;;
25231;SDS011;13176;51.140;6.290;2023-06-22T13:09:52;840.58;;;761.95;;
25231;SDS011;13176;51.140;6.290;2023-06-22T13:12:20;766.88;;;697.38;;
25231;SDS011;13176;51.140;6.290;2023-06-22T13:14:48;790.47;;;717.10;;
25231;SDS011;13176;51.140;6.290;2023-06-22T13:17:15;827.38;;;749.65;;
25231;SDS011;13176;51.140;6.290;2023-06-22T13:19:41;815.72;;;740.33;;
25231;SDS011;13176;51.140;6.290;2023-06-22T13:22:25;830.35;;;754.05;;
25231;SDS011;13176;51.140;6.290;2023-06-22T13:25:00;799.13;;;725.42;;
25231;SDS011;13176;51.140;6.290;2023-06-22T13:27:27;816.15;;;738.22;;
25231;SDS011;13176;51.140;6.290;2023-06-22T13:29:54;758.60;;;689.97;;
25231;SDS011;13176;51.140;6.290;2023-06-22T13:32:20;759.53;;;689.50;;
25231;SDS011;13176;51.140;6.290;2023-06-22T13:34:47;754.25;;;686.00;;
25231;SDS011;13176;51.140;6.290;2023-06-22T13:37:13;772.60;;;703.00;;
25231;SDS011;13176;51.140;6.290;2023-06-22T13:39:40;742.80;;;677.38;;
25231;SDS011;13176;51.140;6.290;2023-06-22T13:42:07;698.63;;;639.20;;
25231;SDS011;13176;51.140;6.290;2023-06-22T13:44:33;753.30;;;686.17;;
25231;SDS011;13176;51.140;6.290;2023-06-22T13:47:00;716.20;;;653.17;;
25231;SDS011;13176;51.140;6.290;2023-06-22T13:49:27;715.15;;;653.45;;
25231;SDS011;13176;51.140;6.290;2023-06-22T13:51:53;779.90;;;710.75;;
25231;SDS011;13176;51.140;6.290;2023-06-22T13:54:20;670.97;;;613.67;;
25231;SDS011;13176;51.140;6.290;2023-06-22T13:56:55;790.85;;;717.00;;
25231;SDS011;13176;51.140;6.290;2023-06-22T13:59:22;767.00;;;695.95;;
25231;SDS011;13176;51.140;6.290;2023-06-22T14:01:49;760.95;;;690.53;;
25231;SDS011;13176;51.140;6.290;2023-06-22T14:04:18;768.95;;;701.70;;
25231;SDS011;13176;51.140;6.290;2023-06-22T14:06:45;731.88;;;666.35;;
25231;SDS011;13176;51.140;6.290;2023-06-22T14:09:14;842.38;;;764.45;;
25231;SDS011;13176;51.140;6.290;2023-06-22T14:11:41;659.00;;;604.20;;
25231;SDS011;13176;51.140;6.290;2023-06-22T14:14:07;643.20;;;587.53;;